Time;durP1;ratioP1;P1;durP2;ratioP2;P2;SDS_P1;SDS_P2;PMS_P1;PMS_P2;Temp;Humidity;BMP_temperature;BMP_pressure;BME280_temperature;BME280_humidity;BME280_pressure;Samples;Min_cycle;Max_cycle;Signal;HPM_P1;HPM_P2
2023/12/31 00:02:06;;;;;;;18.53;16.47;;;;;;;7.71;81.28;93099.53;5071459;28;20245;-72
2023/12/31 00:04:31;;;;;;;17.07;15.47;;;;;;;7.54;81.18;93065.13;5058052;28;20204;-73
2023/12/31 00:06:57;;;;;;;16.90;15.20;;;;;;;7.68;81.70;93097.44;5065595;28;20225;-73
2023/12/31 00:09:22;;;;;;;17.03;15.43;;;;;;;7.68;82.22;93097.44;5068414;28;20486;-72
2023/12/31 00:11:47;;;;;;;17.87;15.93;;;;;;;7.55;83.05;93100.44;5065522;28;20226;-73
2023/12/31 00:14:13;;;;;;;17.27;15.77;;;;;;;7.47;82.65;93092.34;5070945;28;20207;-73
2023/12/31 00:16:38;;;;;;;17.23;15.33;;;;;;;7.40;83.00;93107.31;5070406;28;20204;-72
2023/12/31 00:19:04;;;;;;;17.57;16.07;;;;;;;7.25;82.64;93102.00;5071327;28;20208;-72
2023/12/31 00:21:29;;;;;;;16.40;14.67;;;;;;;7.08;83.52;93101.31;5062452;28;20249;-73
2023/12/31 00:23:54;;;;;;;17.53;15.93;;;;;;;7.20;84.03;93110.53;5068292;28;20189;-72
2023/12/31 00:26:19;;;;;;;18.07;16.03;;;;;;;7.05;84.13;93105.19;5068621;28;20189;-72
2023/12/31 00:28:45;;;;;;;17.73;15.97;;;;;;;6.99;84.31;93106.16;5080333;28;20283;-72
2023/12/31 00:31:10;;;;;;;17.40;15.67;;;;;;;6.91;84.76;93095.44;5084578;28;20331;-72
2023/12/31 00:33:36;;;;;;;18.00;16.33;;;;;;;6.91;84.82;93108.41;5061730;28;20293;-72
2023/12/31 00:36:01;;;;;;;17.73;15.77;;;;;;;6.69;85.24;93077.31;5079492;28;20216;-72
2023/12/31 00:38:26;;;;;;;18.80;17.00;;;;;;;6.72;85.00;93096.78;5065287;28;20237;-72
2023/12/31 00:40:52;;;;;;;18.50;16.60;;;;;;;6.73;85.34;93099.13;5066687;28;20242;-72
2023/12/31 00:43:18;;;;;;;20.83;16.70;;;;;;;6.52;85.75;93100.72;5060725;28;20246;-72
2023/12/31 00:45:43;;;;;;;20.53;18.23;;;;;;;6.27;87.01;93112.59;5064989;28;20193;-72
2023/12/31 00:48:08;;;;;;;22.37;17.63;;;;;;;6.50;86.46;93107.97;5059160;28;20245;-73
2023/12/31 00:50:34;;;;;;;20.83;18.83;;;;;;;6.50;85.39;93101.97;5066032;28;20188;-72
2023/12/31 00:53:01;;;;;;;20.80;17.23;;;;;;;6.25;86.94;93099.06;5050718;28;20257;-73
2023/12/31 00:55:26;;;;;;;22.37;17.93;;;;;;;6.25;87.13;93112.81;5046974;28;20205;-73
2023/12/31 00:57:51;;;;;;;24.33;19.20;;;;;;;5.76;89.28;93108.47;5058259;28;20277;-72
2023/12/31 01:00:17;;;;;;;20.73;18.50;;;;;;;5.96;88.86;93102.84;5067352;28;20221;-73
2023/12/31 01:02:42;;;;;;;20.70;18.23;;;;;;;6.02;88.76;93096.69;5058755;28;20232;-73
2023/12/31 01:05:08;;;;;;;23.50;19.17;;;;;;;6.19;87.64;93102.63;5043250;28;20290;-73
2023/12/31 01:07:33;;;;;;;19.70;17.67;;;;;;;5.92;88.08;93096.53;5039152;28;20222;-73
2023/12/31 01:09:58;;;;;;;21.57;19.47;;;;;;;5.91;88.96;93090.59;5042210;28;20196;-72
2023/12/31 01:12:24;;;;;;;21.17;18.20;;;;;;;5.76;89.70;93103.28;5051890;28;20245;-72
2023/12/31 01:14:49;;;;;;;21.73;19.50;;;;;;;5.82;89.15;93099.00;5065932;28;21071;-73
2023/12/31 01:17:14;;;;;;;20.97;18.87;;;;;;;5.93;88.65;93083.34;5059489;28;20243;-73
2023/12/31 01:19:40;;;;;;;23.53;19.17;;;;;;;6.04;88.62;93095.41;5063955;28;20235;-72
2023/12/31 01:22:05;;;;;;;20.73;18.63;;;;;;;5.97;88.71;93088.84;5066225;28;20221;-72
2023/12/31 01:24:30;;;;;;;19.80;17.77;;;;;;;5.99;88.70;93086.81;5070545;28;20278;-72
2023/12/31 01:26:56;;;;;;;24.63;19.53;;;;;;;5.61;89.71;93089.31;5066726;28;20782;-72
2023/12/31 01:29:21;;;;;;;21.60;18.83;;;;;;;5.75;89.52;93087.97;5065130;28;20249;-72
2023/12/31 01:31:47;;;;;;;22.87;18.33;;;;;;;5.88;89.24;93087.69;5068799;28;20221;-72
2023/12/31 01:34:12;;;;;;;24.10;19.23;;;;;;;5.89;88.63;93087.44;5070183;28;20180;-72
2023/12/31 01:36:37;;;;;;;21.43;17.77;;;;;;;5.86;88.50;93084.53;5066128;28;20264;-72
2023/12/31 01:39:03;;;;;;;19.73;17.63;;;;;;;5.74;89.00;93089.00;5049143;28;20181;-72
2023/12/31 01:41:29;;;;;;;20.60;18.20;;;;;;;5.60;89.24;93080.78;5050060;28;20220;-73
2023/12/31 01:44:02;;;;;;;19.50;17.43;;;;;;;5.68;88.90;93093.31;5068881;28;20297;-72
2023/12/31 01:46:30;;;;;;;21.53;17.77;;;;;;;5.69;89.06;93091.50;5061435;28;20182;-72
2023/12/31 01:48:56;;;;;;;20.27;18.17;;;;;;;5.58;89.08;93087.19;5068256;28;20189;-73
2023/12/31 01:51:24;;;;;;;18.53;16.70;;;;;;;5.57;89.49;93090.81;5064938;28;20213;-72
2023/12/31 01:53:49;;;;;;;19.30;17.27;;;;;;;5.56;89.27;93092.63;5045927;28;20194;-72
2023/12/31 01:56:15;;;;;;;22.63;18.77;;;;;;;5.53;89.27;93092.31;5045545;28;20210;-72
2023/12/31 01:58:41;;;;;;;28.57;21.37;;;;;;;5.24;90.13;93089.00;5048831;28;20229;-72
2023/12/31 02:01:08;;;;;;;24.40;20.80;;;;;;;5.40;89.70;93087.44;5047832;28;20186;-72
2023/12/31 02:03:33;;;;;;;25.40;20.70;;;;;;;5.46;89.55;93089.09;5040716;28;20225;-72
2023/12/31 02:05:59;;;;;;;24.13;19.73;;;;;;;5.40;89.64;93077.09;5045300;28;20190;-72
2023/12/31 02:08:25;;;;;;;24.77;19.77;;;;;;;5.20;89.55;93063.84;5060549;28;20244;-72
2023/12/31 02:10:51;;;;;;;21.20;18.87;;;;;;;5.43;88.85;93074.81;5047985;28;20271;-71
2023/12/31 02:13:17;;;;;;;21.17;19.07;;;;;;;5.35;89.08;93084.78;5047413;28;20240;-73
2023/12/31 02:15:42;;;;;;;21.67;17.73;;;;;;;5.45;88.43;93059.06;5048384;28;20229;-72
2023/12/31 02:18:07;;;;;;;22.20;18.90;;;;;;;5.62;88.32;93076.13;5034719;28;20317;-73
2023/12/31 02:20:33;;;;;;;19.70;17.80;;;;;;;5.66;88.45;93073.88;5037672;28;20902;-72
2023/12/31 02:22:58;;;;;;;21.60;19.33;;;;;;;5.68;88.32;93053.69;5048020;28;20220;-72
2023/12/31 02:25:28;;;;;;;21.07;18.97;;;;;;;5.79;88.05;93066.53;5057815;28;20196;-72
2023/12/31 02:27:53;;;;;;;21.27;19.00;;;;;;;5.64;88.61;93052.59;5062853;28;20213;-72
2023/12/31 02:30:20;;;;;;;20.67;18.47;;;;;;;5.72;88.54;93058.16;5065599;28;20188;-73
2023/12/31 02:32:45;;;;;;;20.63;18.23;;;;;;;5.71;88.11;93037.69;5064113;28;20229;-73
2023/12/31 02:35:11;;;;;;;19.80;17.57;;;;;;;5.81;88.54;93051.56;5066533;28;20881;-73
2023/12/31 02:37:36;;;;;;;19.13;17.23;;;;;;;5.86;88.25;93043.88;5045224;28;20230;-72
2023/12/31 02:40:02;;;;;;;20.03;17.97;;;;;;;5.75;88.29;93036.16;5045470;28;20191;-72
2023/12/31 02:42:27;;;;;;;19.87;17.57;;;;;;;5.56;88.68;93034.84;5038942;28;20222;-72
2023/12/31 02:44:53;;;;;;;18.30;16.50;;;;;;;5.53;88.76;93045.69;5045309;28;20218;-72
2023/12/31 02:47:18;;;;;;;18.33;16.50;;;;;;;5.31;87.99;93043.03;5049033;28;20257;-72
2023/12/31 02:49:43;;;;;;;16.87;15.23;;;;;;;5.12;89.30;93044.28;5051517;28;20212;-72
2023/12/31 02:52:11;;;;;;;16.40;15.10;;;;;;;5.27;88.65;93046.34;5046399;28;20228;-72
2023/12/31 02:54:38;;;;;;;18.23;15.93;;;;;;;5.14;88.27;93041.50;5045706;28;20210;-72
2023/12/31 02:57:07;;;;;;;17.60;15.77;;;;;;;5.10;88.44;93041.16;5045222;28;20218;-72
2023/12/31 02:59:33;;;;;;;15.87;14.47;;;;;;;5.03;88.65;93030.16;5045188;28;20189;-72
2023/12/31 03:01:58;;;;;;;15.30;13.87;;;;;;;5.08;88.89;93053.53;5051860;28;20278;-72
2023/12/31 03:04:24;;;;;;;15.80;14.20;;;;;;;5.09;88.75;93051.75;5052684;28;20222;-73
2023/12/31 03:06:51;;;;;;;15.30;14.00;;;;;;;5.00;88.65;93040.22;5052724;28;20229;-72
2023/12/31 03:09:18;;;;;;;16.03;14.73;;;;;;;4.94;89.08;93047.88;5051743;28;20216;-72
2023/12/31 03:11:44;;;;;;;14.97;13.83;;;;;;;4.92;89.54;93049.13;5046831;28;20226;-72
2023/12/31 03:14:10;;;;;;;13.93;12.83;;;;;;;4.96;89.58;93048.41;5047720;28;20193;-73
2023/12/31 03:16:35;;;;;;;13.57;12.23;;;;;;;5.04;89.45;93052.44;5045193;28;20178;-72
2023/12/31 03:19:00;;;;;;;12.70;11.80;;;;;;;4.96;89.77;93045.84;5051616;28;20189;-72
2023/12/31 03:21:26;;;;;;;13.13;12.10;;;;;;;5.02;89.74;93054.47;5048701;28;20240;-73
2023/12/31 03:23:51;;;;;;;13.23;12.13;;;;;;;4.95;89.74;93059.00;5051859;28;20200;-72
2023/12/31 03:26:16;;;;;;;13.77;12.77;;;;;;;4.88;90.36;93048.81;5049187;28;20241;-71
2023/12/31 03:28:42;;;;;;;14.53;13.43;;;;;;;4.85;89.99;93035.56;5064246;28;20221;-73
2023/12/31 03:31:09;;;;;;;13.50;12.33;;;;;;;5.04;89.87;93052.44;5067393;28;20213;-72
2023/12/31 03:33:35;;;;;;;12.83;11.83;;;;;;;4.89;90.12;93042.63;5069636;28;20243;-72
2023/12/31 03:36:00;;;;;;;11.80;11.10;;;;;;;4.93;89.94;93048.88;5060375;28;20182;-72
2023/12/31 03:38:25;;;;;;;12.90;12.00;;;;;;;5.00;89.57;93047.97;5067126;28;20225;-73
2023/12/31 03:40:51;;;;;;;11.90;10.90;;;;;;;5.01;89.50;93039.19;5074278;28;20208;-72
2023/12/31 03:43:16;;;;;;;11.67;10.67;;;;;;;4.87;89.27;93029.13;5075616;28;20208;-73
2023/12/31 03:45:42;;;;;;;11.20;10.50;;;;;;;4.91;89.61;93042.38;5078698;28;20189;-72
2023/12/31 03:48:07;;;;;;;11.17;10.57;;;;;;;4.78;89.57;93038.28;5060192;28;20221;-72
2023/12/31 03:50:33;;;;;;;11.50;10.80;;;;;;;4.73;90.08;93040.78;5072208;28;20205;-72
2023/12/31 03:52:58;;;;;;;11.63;10.63;;;;;;;4.85;89.82;93049.28;5068685;28;20819;-72
2023/12/31 03:55:24;;;;;;;10.50;9.90;;;;;;;4.80;90.68;93053.56;5066165;28;20882;-72
2023/12/31 03:57:49;;;;;;;12.50;11.60;;;;;;;4.85;90.04;93051.88;5059608;28;20218;-72
2023/12/31 04:00:16;;;;;;;11.77;11.07;;;;;;;4.84;89.99;93052.88;5057374;28;20194;-72
2023/12/31 04:02:41;;;;;;;12.73;11.93;;;;;;;4.77;90.57;93047.09;5064872;28;20240;-73
2023/12/31 04:05:07;;;;;;;11.83;11.13;;;;;;;4.62;90.33;93031.28;5077345;28;20181;-72
2023/12/31 04:07:33;;;;;;;11.43;10.63;;;;;;;4.58;91.09;93053.44;5070664;28;20259;-72
2023/12/31 04:09:58;;;;;;;11.00;10.40;;;;;;;4.66;91.10;93050.50;5067238;28;20189;-73
2023/12/31 04:12:23;;;;;;;10.73;10.03;;;;;;;4.69;90.92;93055.22;5069621;28;20263;-73
2023/12/31 04:14:49;;;;;;;10.57;9.83;;;;;;;4.68;90.47;93053.66;5065100;28;20188;-73
2023/12/31 04:17:14;;;;;;;10.73;10.13;;;;;;;4.74;90.49;93062.28;5069717;28;20209;-72
2023/12/31 04:19:39;;;;;;;11.00;10.30;;;;;;;4.78;90.35;93065.94;5064725;28;21220;-72
2023/12/31 04:22:05;;;;;;;10.27;9.57;;;;;;;4.86;90.46;93063.00;5066822;28;20281;-72
2023/12/31 04:24:30;;;;;;;11.50;10.70;;;;;;;4.82;90.24;93054.91;5064357;28;20198;-72
2023/12/31 04:26:57;;;;;;;10.63;9.83;;;;;;;4.78;89.97;93063.38;5068237;28;20235;-72
2023/12/31 04:29:22;;;;;;;11.43;10.83;;;;;;;4.69;90.06;93069.94;5061537;28;20178;-73
2023/12/31 04:31:48;;;;;;;9.83;9.37;;;;;;;4.70;90.25;93074.88;5065495;28;20228;-73
2023/12/31 04:34:14;;;;;;;11.33;10.70;;;;;;;4.62;90.11;93064.13;5043725;28;20217;-72
2023/12/31 04:36:45;;;;;;;11.20;10.57;;;;;;;4.56;90.21;93076.16;5043252;28;20818;-72
2023/12/31 04:39:13;;;;;;;11.00;10.40;;;;;;;4.43;90.52;93066.09;5050731;28;20182;-72
2023/12/31 04:41:38;;;;;;;11.67;11.07;;;;;;;4.47;90.13;93062.03;5048108;28;20918;-72
2023/12/31 04:44:04;;;;;;;13.13;12.30;;;;;;;4.51;90.51;93057.97;5046679;28;20195;-72
2023/12/31 04:46:30;;;;;;;11.17;10.57;;;;;;;4.54;89.58;93064.50;5049596;28;20197;-72
2023/12/31 04:48:55;;;;;;;12.90;12.00;;;;;;;4.48;89.71;93062.84;5062941;28;20197;-72
2023/12/31 04:51:28;;;;;;;9.80;9.30;;;;;;;4.54;90.04;93070.47;5060393;28;20232;-72
2023/12/31 04:53:55;;;;;;;12.10;11.23;;;;;;;4.51;89.32;93052.78;5050130;28;20269;-72
2023/12/31 04:56:21;;;;;;;10.97;10.17;;;;;;;4.53;89.65;93068.06;5047462;28;20217;-72
2023/12/31 04:58:51;;;;;;;10.03;9.53;;;;;;;4.61;89.40;93078.84;5037516;28;20221;-72
2023/12/31 05:01:17;;;;;;;11.70;11.10;;;;;;;4.43;89.24;93073.06;5041859;28;20208;-71
2023/12/31 05:03:47;;;;;;;10.33;9.73;;;;;;;4.52;89.94;93080.22;5049778;28;20230;-72
2023/12/31 05:06:13;;;;;;;11.10;10.50;;;;;;;4.53;89.63;93089.53;5049922;28;20189;-72
2023/12/31 05:08:43;;;;;;;10.60;9.90;;;;;;;4.44;89.79;93083.19;5049458;28;20252;-72
2023/12/31 05:11:12;;;;;;;9.97;9.47;;;;;;;4.39;90.52;93085.66;5048809;28;20214;-72
2023/12/31 05:13:42;;;;;;;10.90;10.37;;;;;;;4.39;89.94;93079.72;5064937;28;20242;-71
2023/12/31 05:16:10;;;;;;;11.37;10.77;;;;;;;4.35;89.68;93081.19;5065656;28;20178;-73
2023/12/31 05:18:36;;;;;;;11.67;11.07;;;;;;;4.19;89.13;93076.72;5052983;28;20218;-72
2023/12/31 05:21:01;;;;;;;10.40;9.90;;;;;;;4.26;89.58;93085.13;5060830;28;20229;-72
2023/12/31 05:23:27;;;;;;;10.20;9.77;;;;;;;4.12;90.08;93084.59;5057960;28;20226;-73
2023/12/31 05:25:53;;;;;;;11.07;10.37;;;;;;;4.16;89.84;93080.53;5065862;28;20610;-72
2023/12/31 05:28:18;;;;;;;11.30;10.67;;;;;;;4.00;89.63;93086.41;5037366;28;20310;-72
2023/12/31 05:30:44;;;;;;;11.73;10.93;;;;;;;3.87;90.32;93078.91;5039663;28;20186;-72
2023/12/31 05:33:13;;;;;;;11.80;11.00;;;;;;;3.99;90.42;93073.72;5039189;28;20242;-72
2023/12/31 05:35:38;;;;;;;11.37;10.57;;;;;;;4.01;90.19;93082.81;5042383;28;20191;-72
2023/12/31 05:38:04;;;;;;;11.20;10.40;;;;;;;3.92;90.44;93068.66;5059267;28;20259;-72
2023/12/31 05:40:29;;;;;;;11.43;10.53;;;;;;;3.99;90.33;93078.88;5061593;28;20249;-73
2023/12/31 05:42:56;;;;;;;12.00;11.10;;;;;;;3.95;90.53;93072.63;5060473;28;20278;-72
2023/12/31 05:45:21;;;;;;;12.63;11.83;;;;;;;3.97;90.12;93083.50;5068570;28;20204;-73
2023/12/31 05:47:47;;;;;;;11.60;10.77;;;;;;;3.93;90.17;93077.22;5057285;28;20226;-72
2023/12/31 05:50:13;;;;;;;10.97;10.37;;;;;;;4.00;90.72;93085.66;5049904;28;20178;-73
2023/12/31 05:52:39;;;;;;;10.80;10.20;;;;;;;3.90;90.24;93075.88;5048213;28;20225;-72
2023/12/31 05:55:04;;;;;;;11.47;10.57;;;;;;;3.88;89.99;93074.50;5037734;28;20200;-73
2023/12/31 05:57:30;;;;;;;12.90;11.90;;;;;;;3.87;90.30;93081.50;5049186;28;20286;-72
2023/12/31 05:59:55;;;;;;;12.10;10.93;;;;;;;3.50;91.28;93043.25;5049800;28;20186;-73
2023/12/31 06:02:20;;;;;;;11.37;10.53;;;;;;;3.76;91.59;93087.44;5055727;28;20221;-72
2023/12/31 06:04:46;;;;;;;12.03;11.33;;;;;;;3.66;91.48;93063.97;5069868;28;20197;-72
2023/12/31 06:07:11;;;;;;;12.70;11.80;;;;;;;3.88;91.03;93082.25;5057992;28;20221;-73
2023/12/31 06:09:36;;;;;;;11.03;10.37;;;;;;;3.83;90.95;93095.09;5068202;28;20182;-72
2023/12/31 06:12:02;;;;;;;12.27;11.27;;;;;;;3.83;91.57;93089.94;5067784;28;20225;-72
2023/12/31 06:14:27;;;;;;;11.23;10.63;;;;;;;3.87;91.46;93089.25;5066887;28;20266;-72
2023/12/31 06:16:52;;;;;;;10.90;10.23;;;;;;;4.01;91.40;93088.00;5063147;28;20256;-72
2023/12/31 06:19:18;;;;;;;12.77;11.87;;;;;;;3.90;91.98;93070.72;5049312;28;20190;-72
2023/12/31 06:21:43;;;;;;;12.50;11.73;;;;;;;4.22;91.33;93087.38;5040942;28;20226;-72
2023/12/31 06:24:09;;;;;;;11.17;10.47;;;;;;;4.40;90.91;93087.25;5051704;28;20236;-72
2023/12/31 06:26:34;;;;;;;12.03;11.23;;;;;;;4.49;90.55;93096.22;5051876;28;20855;-72
2023/12/31 06:28:59;;;;;;;11.50;10.80;;;;;;;4.59;90.43;93091.22;5048041;28;20185;-72
2023/12/31 06:31:25;;;;;;;11.17;10.47;;;;;;;4.55;89.97;93074.59;5033798;28;20238;-72
2023/12/31 06:33:51;;;;;;;11.73;10.83;;;;;;;4.62;89.66;93093.34;5067862;28;20177;-72
2023/12/31 06:36:17;;;;;;;11.17;10.47;;;;;;;4.72;89.58;93101.28;5071282;28;20161;-73
2023/12/31 06:38:42;;;;;;;11.80;10.93;;;;;;;4.82;89.43;93096.28;5069769;28;20217;-73
2023/12/31 06:41:10;;;;;;;11.93;11.20;;;;;;;4.78;89.34;93105.53;5054589;28;20240;-72
2023/12/31 06:43:36;;;;;;;12.03;10.83;;;;;;;4.69;89.50;93101.75;5072330;28;20240;-72
2023/12/31 06:46:02;;;;;;;12.53;11.43;;;;;;;4.76;89.33;93102.38;5070737;28;20197;-72
2023/12/31 06:48:27;;;;;;;12.33;11.53;;;;;;;4.77;89.94;93103.19;5071652;28;20224;-73
2023/12/31 06:50:53;;;;;;;13.20;12.10;;;;;;;4.83;89.74;93108.22;5062984;28;20250;-72
2023/12/31 06:53:19;;;;;;;14.03;12.67;;;;;;;4.89;89.62;93098.75;5066409;28;20217;-73
2023/12/31 06:55:44;;;;;;;14.73;13.60;;;;;;;5.06;89.45;93106.56;5071279;28;20181;-72
2023/12/31 06:58:09;;;;;;;14.27;12.90;;;;;;;5.08;89.01;93107.09;5070108;28;20209;-72
2023/12/31 07:00:35;;;;;;;17.37;13.33;;;;;;;5.08;89.37;93109.66;5066098;28;20261;-72
2023/12/31 07:03:01;;;;;;;17.00;14.63;;;;;;;5.12;88.80;93103.03;5072328;28;20236;-73
2023/12/31 07:05:26;;;;;;;17.43;15.67;;;;;;;5.22;88.93;93111.75;5058707;28;20178;-73
2023/12/31 07:07:51;;;;;;;18.47;16.67;;;;;;;5.15;88.68;93105.16;5062775;28;20221;-73
2023/12/31 07:10:17;;;;;;;19.63;16.07;;;;;;;5.13;89.01;93113.16;5057081;28;20213;-72
2023/12/31 07:12:42;;;;;;;22.57;18.00;;;;;;;5.17;89.10;93108.31;5059852;28;20231;-72
2023/12/31 07:15:09;;;;;;;17.43;15.67;;;;;;;5.36;87.78;93117.41;5070819;28;20196;-72
2023/12/31 07:17:35;;;;;;;21.10;19.00;;;;;;;5.44;87.25;93119.59;5062765;28;20336;-73
2023/12/31 07:20:05;;;;;;;21.20;18.80;;;;;;;5.30;88.01;93118.34;5071517;28;20281;-72
2023/12/31 07:22:31;;;;;;;20.47;18.37;;;;;;;5.19;88.36;93121.78;5063100;28;20229;-72
2023/12/31 07:24:57;;;;;;;26.00;19.23;;;;;;;5.08;88.43;93110.47;5051214;28;20185;-72
2023/12/31 07:27:22;;;;;;;24.90;20.97;;;;;;;5.07;88.46;93118.47;5051383;28;20625;-73
2023/12/31 07:29:47;;;;;;;23.07;20.53;;;;;;;4.95;88.21;93111.53;5040199;28;20198;-73
2023/12/31 07:32:13;;;;;;;22.83;20.40;;;;;;;5.05;88.21;93118.69;5033151;28;20219;-72
2023/12/31 07:34:38;;;;;;;23.03;20.53;;;;;;;4.99;88.24;93104.09;5033976;28;20250;-72
2023/12/31 07:37:03;;;;;;;23.27;19.60;;;;;;;5.23;88.49;93118.47;5046330;28;20229;-72
2023/12/31 07:39:29;;;;;;;22.90;19.13;;;;;;;5.16;88.12;93101.53;5062402;28;20190;-72
2023/12/31 07:41:55;;;;;;;21.90;19.60;;;;;;;5.46;87.95;93099.47;5071242;28;20305;-72
2023/12/31 07:44:20;;;;;;;24.30;20.60;;;;;;;5.37;87.79;93095.69;5068043;28;20199;-72
2023/12/31 07:46:46;;;;;;;26.73;20.23;;;;;;;5.60;87.52;93113.66;5064086;28;20230;-73
2023/12/31 07:49:11;;;;;;;22.97;20.43;;;;;;;5.60;87.52;93108.47;5045293;28;20201;-73
2023/12/31 07:51:37;;;;;;;25.10;20.17;;;;;;;5.70;86.98;93113.78;5038832;28;20203;-72
2023/12/31 07:54:02;;;;;;;22.80;20.20;;;;;;;5.70;87.09;93114.59;5065943;28;20190;-72
2023/12/31 07:56:27;;;;;;;25.40;22.80;;;;;;;5.75;87.17;93122.44;5059465;28;20678;-72
2023/12/31 07:58:53;;;;;;;29.53;24.70;;;;;;;5.80;87.16;93117.34;5067539;28;20197;-72
2023/12/31 08:01:18;;;;;;;31.63;25.87;;;;;;;5.93;86.82;93113.69;5055649;28;20192;-72
2023/12/31 08:03:45;;;;;;;33.73;27.23;;;;;;;6.23;86.22;93130.41;5056693;28;20298;-72
2023/12/31 08:06:10;;;;;;;31.23;26.60;;;;;;;6.22;85.65;93113.31;5076150;28;20244;-71
2023/12/31 08:08:36;;;;;;;31.60;25.67;;;;;;;6.24;86.03;93126.03;5067626;28;20240;-72
2023/12/31 08:11:01;;;;;;;27.63;23.07;;;;;;;6.34;85.87;93119.16;5066410;28;20259;-71
2023/12/31 08:13:26;;;;;;;27.33;23.67;;;;;;;6.60;84.98;93125.44;5061204;28;20218;-72
2023/12/31 08:15:53;;;;;;;28.53;24.53;;;;;;;6.34;85.31;93134.72;5058931;28;20188;-72
2023/12/31 08:18:19;;;;;;;27.87;23.23;;;;;;;6.59;84.64;93123.88;5038802;28;20229;-72
2023/12/31 08:20:44;;;;;;;31.63;24.37;;;;;;;6.65;84.32;93130.69;5039923;28;20238;-73
2023/12/31 08:23:10;;;;;;;24.93;21.47;;;;;;;6.54;84.66;93142.75;5054005;28;20214;-73
2023/12/31 08:25:35;;;;;;;22.97;19.77;;;;;;;6.39;84.99;93134.78;5041629;28;20190;-72
2023/12/31 08:28:00;;;;;;;23.37;20.30;;;;;;;6.46;84.90;93140.56;5039699;28;20214;-72
2023/12/31 08:30:26;;;;;;;22.07;19.50;;;;;;;6.63;84.93;93139.75;5049288;28;20198;-72
2023/12/31 08:32:51;;;;;;;21.27;19.07;;;;;;;6.84;84.22;93136.34;5060176;28;20962;-73
2023/12/31 08:35:17;;;;;;;21.73;19.20;;;;;;;6.79;84.14;93131.88;5070124;28;20189;-72
2023/12/31 08:37:43;;;;;;;25.00;18.23;;;;;;;6.80;83.89;93138.66;5059325;28;20233;-72
2023/12/31 08:40:10;;;;;;;20.47;18.27;;;;;;;6.99;83.42;93141.72;5049249;28;20220;-72
2023/12/31 08:42:35;;;;;;;20.07;18.17;;;;;;;6.96;83.54;93126.66;5041575;28;20320;-72
2023/12/31 08:45:06;;;;;;;24.40;16.90;;;;;;;6.91;83.25;93134.38;5045396;28;20206;-72
2023/12/31 08:47:32;;;;;;;19.57;17.57;;;;;;;7.05;83.03;93133.72;5037618;28;20234;-72
2023/12/31 08:49:57;;;;;;;20.13;16.97;;;;;;;7.28;82.37;93149.06;5038423;28;20208;-72
2023/12/31 08:52:22;;;;;;;19.37;17.53;;;;;;;7.42;81.96;93150.22;5050244;28;20289;-72
2023/12/31 08:54:48;;;;;;;21.27;17.73;;;;;;;7.45;81.78;93146.34;5050137;28;20209;-72
2023/12/31 08:57:13;;;;;;;23.60;17.80;;;;;;;7.65;81.08;93139.53;5056714;28;20216;-72
2023/12/31 08:59:38;;;;;;;20.23;17.17;;;;;;;7.55;80.85;93141.22;5063358;28;20193;-73
2023/12/31 09:02:04;;;;;;;19.27;17.23;;;;;;;7.81;80.65;93141.19;5069418;28;20224;-72
2023/12/31 09:04:34;;;;;;;20.53;18.43;;;;;;;7.80;80.45;93144.81;5070027;28;20343;-72
2023/12/31 09:07:00;;;;;;;23.03;19.53;;;;;;;7.87;81.12;93142.81;5063053;28;20226;-72
2023/12/31 09:09:25;;;;;;;21.43;18.40;;;;;;;7.88;82.94;93133.19;5042188;28;20178;-72
2023/12/31 09:11:51;;;;;;;19.93;17.67;;;;;;;7.96;83.47;93138.72;5044339;28;20312;-71
2023/12/31 09:14:18;;;;;;;21.27;18.03;;;;;;;8.14;84.10;93135.72;5049873;28;20190;-72
2023/12/31 09:16:44;;;;;;;18.80;17.10;;;;;;;7.98;84.68;93123.63;5044704;28;20248;-73
2023/12/31 09:19:09;;;;;;;19.63;17.63;;;;;;;8.04;84.43;93138.25;5064166;28;20182;-71
2023/12/31 09:21:34;;;;;;;19.53;16.90;;;;;;;8.08;84.66;93133.31;5062381;28;20221;-72
2023/12/31 09:24:00;;;;;;;16.00;14.63;;;;;;;8.12;83.65;93132.56;5037483;28;20190;-72
2023/12/31 09:26:25;;;;;;;19.50;17.20;;;;;;;8.11;83.84;93128.41;5048954;28;20178;-72
2023/12/31 09:28:50;;;;;;;19.93;17.60;;;;;;;8.16;83.44;93125.84;5048566;28;20182;-72
2023/12/31 09:31:15;;;;;;;18.83;16.93;;;;;;;8.09;82.70;93101.88;5049840;28;20201;-72
2023/12/31 09:33:41;;;;;;;19.17;17.03;;;;;;;8.23;82.59;93125.66;5062471;28;20248;-72
2023/12/31 09:36:07;;;;;;;18.03;16.03;;;;;;;8.36;81.67;93114.81;5068363;28;20199;-72
2023/12/31 09:38:33;;;;;;;17.63;15.80;;;;;;;8.33;82.51;93114.53;5065751;28;20280;-72
2023/12/31 09:40:58;;;;;;;20.80;16.20;;;;;;;8.31;82.06;93106.19;5068438;28;20180;-72
2023/12/31 09:43:25;;;;;;;22.97;16.93;;;;;;;8.29;82.28;93113.47;5067646;28;20257;-72
2023/12/31 09:45:52;;;;;;;20.57;18.47;;;;;;;8.46;81.60;93116.69;5064853;28;20697;-72
2023/12/31 09:48:19;;;;;;;19.97;17.07;;;;;;;8.37;82.91;93107.78;5067443;28;20221;-73
2023/12/31 09:50:45;;;;;;;20.33;18.30;;;;;;;8.47;82.01;93108.63;5068608;28;20186;-73
2023/12/31 09:53:13;;;;;;;22.57;17.53;;;;;;;8.56;81.33;93106.31;5056477;28;20225;-73
2023/12/31 09:55:39;;;;;;;20.13;18.27;;;;;;;8.49;81.74;93092.75;5062197;28;20192;-73
2023/12/31 09:58:05;;;;;;;20.37;18.23;;;;;;;8.80;79.91;93094.44;5062382;28;20824;-72
2023/12/31 10:00:30;;;;;;;20.43;18.30;;;;;;;8.84;79.22;93088.47;5055898;28;20178;-72
2023/12/31 10:02:56;;;;;;;20.20;18.10;;;;;;;8.89;79.14;93083.28;5064762;28;20280;-71
2023/12/31 10:05:22;;;;;;;21.23;19.17;;;;;;;8.76;79.40;93081.16;5068062;28;20204;-73
2023/12/31 10:07:47;;;;;;;19.40;17.33;;;;;;;8.63;79.79;93067.84;5056936;28;20289;-72
2023/12/31 10:10:14;;;;;;;20.73;18.60;;;;;;;8.91;79.08;93073.41;5062858;28;20728;-72
2023/12/31 10:12:40;;;;;;;20.77;18.57;;;;;;;8.42;81.00;93072.16;5068027;28;20229;-72
2023/12/31 10:15:08;;;;;;;20.10;18.10;;;;;;;8.85;79.83;93071.81;5068909;28;20188;-73
2023/12/31 10:17:33;;;;;;;19.00;17.13;;;;;;;9.05;78.20;93065.88;5066904;28;20268;-73
2023/12/31 10:19:59;;;;;;;17.53;14.97;;;;;;;9.04;78.37;93072.88;5066056;28;20240;-73
2023/12/31 10:22:25;;;;;;;18.80;16.97;;;;;;;9.12;78.05;93061.22;5068230;28;20263;-72
2023/12/31 10:24:51;;;;;;;18.03;15.37;;;;;;;9.00;78.39;93058.84;5068101;28;20253;-72
2023/12/31 10:27:16;;;;;;;17.83;15.77;;;;;;;9.11;78.42;93057.03;5058657;28;20238;-73
2023/12/31 10:29:43;;;;;;;21.17;16.63;;;;;;;9.16;77.91;93057.81;5040137;28;20728;-73
2023/12/31 10:32:08;;;;;;;21.50;18.43;;;;;;;9.26;77.79;93051.84;5043081;28;20234;-73
2023/12/31 10:34:34;;;;;;;19.03;16.50;;;;;;;9.29;77.14;93046.88;5047037;28;20241;-72
2023/12/31 10:37:07;;;;;;;17.77;16.07;;;;;;;9.31;76.89;93054.44;5048367;28;20277;-72
2023/12/31 10:39:36;;;;;;;19.57;15.87;;;;;;;9.31;77.06;93055.22;5037676;28;20179;-72
2023/12/31 10:42:06;;;;;;;16.13;14.70;;;;;;;9.05;78.35;93047.63;5039942;28;20229;-73
2023/12/31 10:44:38;;;;;;;18.13;16.23;;;;;;;9.26;77.14;93046.66;5067093;28;20213;-72
2023/12/31 10:47:05;;;;;;;16.63;14.87;;;;;;;9.15;77.74;93042.47;5071062;28;20234;-72
2023/12/31 10:49:32;;;;;;;16.67;15.17;;;;;;;9.38;77.14;93050.56;5069012;28;20190;-72
2023/12/31 10:52:04;;;;;;;15.73;14.40;;;;;;;9.40;76.97;93042.47;5067863;28;20217;-72
2023/12/31 10:54:47;;;;;;;17.70;15.90;;;;;;;9.61;75.37;93038.81;5073185;28;20182;-73
2023/12/31 10:57:13;;;;;;;17.80;15.97;;;;;;;9.53;76.06;93026.31;5062219;28;20218;-73
2023/12/31 10:59:42;;;;;;;15.10;13.80;;;;;;;9.72;75.13;93030.75;5060487;28;20201;-72
2023/12/31 11:02:20;;;;;;;17.73;16.07;;;;;;;9.66;75.46;93023.19;5057996;28;20214;-72
2023/12/31 11:04:49;;;;;;;17.27;15.70;;;;;;;9.70;75.16;93021.59;5069661;28;20196;-73
2023/12/31 11:07:19;;;;;;;18.77;16.97;;;;;;;9.62;75.41;93016.91;5050261;28;20367;-73
2023/12/31 11:09:48;;;;;;;16.73;15.03;;;;;;;9.52;75.45;92988.28;5073194;28;20207;-72
2023/12/31 11:12:15;;;;;;;16.63;14.90;;;;;;;9.49;77.38;93007.03;5071927;28;20226;-72
2023/12/31 11:14:49;;;;;;;18.53;16.40;;;;;;;9.74;75.33;92997.34;5064724;28;20173;-73
2023/12/31 11:17:24;;;;;;;17.67;16.07;;;;;;;9.79;75.35;92996.56;5056743;28;20216;-72
2023/12/31 11:20:14;;;;;;;17.07;15.27;;;;;;;9.96;74.90;92989.22;5065636;28;20185;-73
2023/12/31 11:22:54;;;;;;;18.73;15.93;;;;;;;9.82;75.44;92989.00;5061260;28;20221;-73